createdAt,value
2023-05-02T00:00:51.471Z,8.90
2023-05-02T00:03:18.441Z,8.53
2023-05-02T00:05:45.333Z,8.40
2023-05-02T00:08:12.480Z,7.90
2023-05-02T00:10:39.254Z,8.43
2023-05-02T00:13:06.779Z,8.33
2023-05-02T00:15:33.406Z,7.83
2023-05-02T00:18:00.370Z,7.77
2023-05-02T00:20:27.108Z,8.37
2023-05-02T00:22:55.312Z,8.77
2023-05-02T00:25:21.920Z,8.20
2023-05-02T00:27:50.855Z,7.70
2023-05-02T00:30:18.391Z,8.20
2023-05-02T00:32:45.475Z,8.60
2023-05-02T00:35:12.186Z,8.70
2023-05-02T00:37:39.214Z,8.47
2023-05-02T00:40:07.881Z,8.53
2023-05-02T00:42:36.147Z,7.97
2023-05-02T00:45:06.221Z,8.50
2023-05-02T00:47:33.292Z,8.27
2023-05-02T00:50:01.216Z,7.97
2023-05-02T00:52:29.022Z,8.77
2023-05-02T00:54:56.458Z,8.20
2023-05-02T00:57:23.236Z,8.30
2023-05-02T00:59:50.977Z,7.97
2023-05-02T01:02:17.586Z,8.13
2023-05-02T01:04:59.004Z,7.73
2023-05-02T01:07:43.493Z,8.20
2023-05-02T01:10:26.659Z,7.63
2023-05-02T01:13:24.494Z,7.53
2023-05-02T01:15:53.187Z,7.93
2023-05-02T01:18:30.770Z,7.77
2023-05-02T01:21:03.550Z,7.40
2023-05-02T01:23:57.164Z,7.73
2023-05-02T01:27:05.460Z,8.17
2023-05-02T01:29:33.153Z,7.33
2023-05-02T01:32:02.930Z,7.87
2023-05-02T01:34:31.289Z,7.77
2023-05-02T01:36:59.196Z,7.60
2023-05-02T01:39:26.982Z,7.47
2023-05-02T01:41:57.940Z,7.43
2023-05-02T01:44:25.439Z,7.40
2023-05-02T01:46:54.860Z,7.50
2023-05-02T01:49:24.220Z,8.13
2023-05-02T01:51:52.266Z,7.67
2023-05-02T01:54:21.666Z,8.43
2023-05-02T01:56:49.372Z,7.87
2023-05-02T01:59:20.197Z,8.23
2023-05-02T02:01:48.507Z,7.77
2023-05-02T02:04:16.523Z,7.90
2023-05-02T02:06:48.341Z,7.60
2023-05-02T02:09:15.452Z,7.90
2023-05-02T02:11:57.625Z,7.60
2023-05-02T02:14:33.308Z,7.60
2023-05-02T02:17:02.354Z,7.53
2023-05-02T02:19:30.776Z,7.47
2023-05-02T02:21:58.704Z,7.30
2023-05-02T02:24:26.735Z,7.87
2023-05-02T02:26:53.544Z,7.93
2023-05-02T02:29:20.304Z,7.70
2023-05-02T02:31:46.881Z,8.03
2023-05-02T02:34:13.503Z,7.80
2023-05-02T02:36:47.854Z,8.43
2023-05-02T02:39:45.265Z,7.60
2023-05-02T02:42:25.464Z,7.53
2023-05-02T02:45:17.103Z,8.20
2023-05-02T02:48:02.372Z,8.03
2023-05-02T02:50:47.734Z,8.10
2023-05-02T02:53:20.576Z,7.43
2023-05-02T02:56:02.934Z,8.20
2023-05-02T02:59:00.394Z,7.77
2023-05-02T03:01:30.863Z,7.93
2023-05-02T03:03:57.916Z,7.97
2023-05-02T03:06:25.718Z,7.87
2023-05-02T03:08:52.442Z,8.30
2023-05-02T03:11:19.106Z,7.63
2023-05-02T03:13:45.803Z,8.03
2023-05-02T03:16:34.416Z,7.47
2023-05-02T03:19:01.187Z,9.00
2023-05-02T03:21:27.781Z,8.23
2023-05-02T03:23:54.404Z,7.97
2023-05-02T03:26:21.246Z,8.37
2023-05-02T03:28:48.770Z,8.20
2023-05-02T03:31:15.573Z,7.80
2023-05-02T03:33:42.312Z,7.87
2023-05-02T03:36:08.964Z,7.80
2023-05-02T03:38:35.619Z,7.93
2023-05-02T03:41:03.065Z,8.10
2023-05-02T03:43:30.346Z,7.90
2023-05-02T03:45:57.054Z,8.00
2023-05-02T03:48:23.856Z,7.70
2023-05-02T03:50:50.954Z,8.13
2023-05-02T03:53:17.726Z,7.93
2023-05-02T03:55:44.537Z,7.37
2023-05-02T03:58:11.836Z,8.00
2023-05-02T04:00:38.652Z,8.00
2023-05-02T04:03:05.578Z,7.93
2023-05-02T04:05:32.171Z,8.20
2023-05-02T04:07:58.807Z,7.93
2023-05-02T04:10:25.463Z,6.73
2023-05-02T04:12:52.093Z,8.43
2023-05-02T04:15:18.769Z,7.97
2023-05-02T04:17:46.690Z,9.87
2023-05-02T04:20:13.663Z,8.10
2023-05-02T04:22:40.766Z,8.20
2023-05-02T04:25:07.702Z,8.23
2023-05-02T04:27:34.365Z,7.90
2023-05-02T04:30:01.389Z,8.00
2023-05-02T04:32:28.428Z,7.33
2023-05-02T04:34:55.762Z,7.57
2023-05-02T04:37:22.497Z,7.93
2023-05-02T04:39:49.114Z,7.83
2023-05-02T04:42:15.731Z,7.70
2023-05-02T04:44:42.317Z,8.07
2023-05-02T04:47:08.941Z,7.73
2023-05-02T04:49:35.636Z,7.67
2023-05-02T04:52:02.333Z,7.80
2023-05-02T04:54:29.112Z,7.83
2023-05-02T04:56:55.757Z,6.93
2023-05-02T04:59:22.694Z,8.13
2023-05-02T05:01:49.332Z,8.27
2023-05-02T05:04:16.086Z,8.10
2023-05-02T05:06:43.398Z,8.27
2023-05-02T05:09:10.171Z,8.23
2023-05-02T05:11:38.514Z,8.00
2023-05-02T05:14:05.346Z,8.33
2023-05-02T05:16:32.071Z,7.97
2023-05-02T05:18:58.784Z,7.80
2023-05-02T05:21:25.436Z,7.93
2023-05-02T05:23:52.065Z,8.30
2023-05-02T05:26:18.863Z,7.53
2023-05-02T05:28:45.546Z,8.27
2023-05-02T05:31:16.042Z,7.90
2023-05-02T05:33:44.085Z,8.53
2023-05-02T05:36:14.366Z,8.43
2023-05-02T05:38:41.454Z,7.87
2023-05-02T05:41:08.256Z,8.40
2023-05-02T05:43:37.287Z,8.57
2023-05-02T05:46:05.312Z,8.67
2023-05-02T05:48:31.929Z,8.17
2023-05-02T05:50:58.550Z,8.13
2023-05-02T05:53:25.650Z,8.47
2023-05-02T05:55:52.274Z,8.00
2023-05-02T05:58:18.859Z,7.90
2023-05-02T06:00:45.540Z,7.60
2023-05-02T06:03:12.370Z,7.87
2023-05-02T06:05:39.140Z,8.23
2023-05-02T06:08:05.817Z,8.60
2023-05-02T06:10:32.680Z,8.23
2023-05-02T06:12:59.357Z,8.93
2023-05-02T06:15:25.982Z,8.37
2023-05-02T06:17:52.767Z,8.83
2023-05-02T06:20:19.503Z,9.00
2023-05-02T06:22:46.374Z,8.97
2023-05-02T06:25:13.035Z,9.00
2023-05-02T06:27:39.724Z,8.70
2023-05-02T06:30:07.078Z,8.77
2023-05-02T06:32:33.719Z,8.73
2023-05-02T06:35:00.334Z,8.73
2023-05-02T06:37:26.956Z,8.40
2023-05-02T06:39:53.610Z,8.47
2023-05-02T06:42:20.404Z,9.83
2023-05-02T06:44:47.073Z,10.73
2023-05-02T06:47:13.873Z,9.00
2023-05-02T06:49:40.588Z,9.10
2023-05-02T06:52:07.261Z,8.27
2023-05-02T06:54:33.959Z,10.23
2023-05-02T06:57:02.029Z,11.23
2023-05-02T06:59:28.698Z,9.87
2023-05-02T07:01:55.396Z,8.60
2023-05-02T07:04:22.346Z,8.80
2023-05-02T07:06:49.145Z,8.77
2023-05-02T07:09:16.865Z,9.73
2023-05-02T07:11:43.511Z,9.70
2023-05-02T07:14:10.151Z,9.53
2023-05-02T07:16:36.924Z,9.87
2023-05-02T07:19:06.604Z,9.53
2023-05-02T07:21:33.596Z,9.07
2023-05-02T07:24:00.783Z,9.17
2023-05-02T07:26:28.455Z,8.90
2023-05-02T07:28:55.056Z,10.27
2023-05-02T07:31:21.689Z,10.23
2023-05-02T07:33:48.351Z,8.67
2023-05-02T07:36:14.967Z,9.33
2023-05-02T07:38:41.553Z,10.07
2023-05-02T07:41:08.254Z,10.40
2023-05-02T07:43:34.969Z,9.20
2023-05-02T07:46:05.586Z,9.63
2023-05-02T07:48:33.625Z,9.00
2023-05-02T07:51:07.779Z,9.50
2023-05-02T07:53:34.642Z,10.50
2023-05-02T07:56:06.697Z,9.87
2023-05-02T07:58:33.382Z,9.47
2023-05-02T08:01:00.041Z,8.90
2023-05-02T08:03:28.194Z,10.30
2023-05-02T08:05:55.016Z,8.73
2023-05-02T08:08:21.831Z,10.03
2023-05-02T08:10:50.372Z,9.37
2023-05-02T08:13:17.681Z,8.47
2023-05-02T08:15:44.603Z,7.97
2023-05-02T08:18:11.471Z,8.63
2023-05-02T08:20:38.196Z,8.10
2023-05-02T08:23:04.945Z,7.40
2023-05-02T08:25:31.689Z,9.07
2023-05-02T08:27:58.399Z,7.47
2023-05-02T08:30:25.352Z,7.80
2023-05-02T08:32:52.064Z,7.50
2023-05-02T08:35:18.866Z,7.80
2023-05-02T08:37:45.462Z,7.40
2023-05-02T08:40:12.955Z,7.93
2023-05-02T08:42:43.871Z,8.87
2023-05-02T08:45:14.204Z,8.40
2023-05-02T08:47:44.680Z,6.77
2023-05-02T08:50:11.987Z,8.53
2023-05-02T08:52:39.132Z,10.47
2023-05-02T08:55:07.404Z,8.93
2023-05-02T08:57:34.139Z,8.43
2023-05-02T09:00:01.073Z,8.50
2023-05-02T09:03:02.476Z,7.13
2023-05-02T09:05:33.472Z,7.27
2023-05-02T09:08:00.517Z,6.33
2023-05-02T09:10:28.981Z,7.97
2023-05-02T09:12:55.900Z,6.87
2023-05-02T09:15:22.672Z,7.13
2023-05-02T09:17:49.399Z,6.77
2023-05-02T09:20:16.798Z,5.93
2023-05-02T09:22:51.118Z,5.60
2023-05-02T09:25:19.337Z,5.90
2023-05-02T09:27:53.145Z,6.50
2023-05-02T09:30:22.221Z,6.87
2023-05-02T09:32:53.912Z,7.30
2023-05-02T09:35:23.950Z,6.43
2023-05-02T09:37:55.746Z,6.60
2023-05-02T09:40:23.247Z,6.93
2023-05-02T09:42:50.403Z,8.07
2023-05-02T09:45:21.821Z,7.27
2023-05-02T09:47:49.237Z,7.00
2023-05-02T09:50:36.057Z,6.27
2023-05-02T09:53:07.640Z,7.07
2023-05-02T09:55:34.449Z,6.23
2023-05-02T09:58:01.456Z,8.47
2023-05-02T10:00:45.040Z,9.17
2023-05-02T10:03:18.456Z,8.83
2023-05-02T10:05:47.957Z,8.70
2023-05-02T10:08:18.500Z,8.83
2023-05-02T10:10:50.154Z,8.50
2023-05-02T10:13:19.913Z,7.77
2023-05-02T10:15:50.151Z,8.13
2023-05-02T10:18:25.221Z,7.67
2023-05-02T10:21:01.561Z,7.00
2023-05-02T10:23:31.757Z,8.60
2023-05-02T10:26:00.115Z,6.47
2023-05-02T10:28:28.118Z,7.83
2023-05-02T10:30:55.308Z,7.07
2023-05-02T10:33:23.419Z,7.10
2023-05-02T10:35:50.446Z,6.03
2023-05-02T10:38:23.397Z,6.80
2023-05-02T10:40:58.907Z,8.07
2023-05-02T10:43:28.068Z,8.23
2023-05-02T10:45:55.121Z,8.10
2023-05-02T10:48:24.922Z,7.60
2023-05-02T10:50:53.496Z,6.07
2023-05-02T10:53:34.669Z,5.63
2023-05-02T10:56:08.391Z,5.23
2023-05-02T10:58:35.188Z,7.33
2023-05-02T11:01:29.746Z,6.53
2023-05-02T11:04:02.348Z,7.27
2023-05-02T11:06:34.913Z,7.23
2023-05-02T11:09:16.662Z,7.53
2023-05-02T11:11:43.624Z,6.07
2023-05-02T11:14:12.274Z,5.10
2023-05-02T11:16:58.847Z,6.00
2023-05-02T11:19:31.207Z,6.60
2023-05-02T11:22:26.951Z,5.30
2023-05-02T11:24:54.247Z,6.40
2023-05-02T11:27:30.052Z,6.73
2023-05-02T11:29:57.549Z,6.60
2023-05-02T11:32:27.222Z,5.60
2023-05-02T11:34:55.567Z,6.80
2023-05-02T11:37:22.255Z,6.43
2023-05-02T11:39:49.018Z,7.03
2023-05-02T11:42:32.152Z,6.93
2023-05-02T11:45:01.127Z,6.47
2023-05-02T11:47:29.600Z,6.77
2023-05-02T11:49:57.509Z,6.77
2023-05-02T11:52:24.754Z,7.03
2023-05-02T11:54:55.866Z,7.23
2023-05-02T11:57:23.146Z,7.73
2023-05-02T11:59:53.859Z,7.40
2023-05-02T12:02:35.065Z,7.80
2023-05-02T12:05:03.886Z,7.73
2023-05-02T12:07:40.455Z,10.20
2023-05-02T12:10:08.688Z,6.60
2023-05-02T12:12:36.776Z,4.90
2023-05-02T12:15:07.849Z,2.90
2023-05-02T12:17:37.647Z,2.10
2023-05-02T12:20:06.184Z,3.20
2023-05-02T12:22:33.319Z,2.90
2023-05-02T12:25:00.786Z,2.30
2023-05-02T12:27:27.765Z,1.57
2023-05-02T12:29:54.952Z,2.63
2023-05-02T12:32:33.324Z,2.87
2023-05-02T12:35:01.885Z,3.50
2023-05-02T12:37:29.060Z,3.70
2023-05-02T12:39:56.738Z,3.23
2023-05-02T12:42:25.400Z,3.23
2023-05-02T12:44:53.185Z,3.40
2023-05-02T12:47:22.493Z,3.67
2023-05-02T12:49:57.423Z,4.40
2023-05-02T12:52:50.425Z,4.67
2023-05-02T12:55:25.672Z,4.30
2023-05-02T12:58:01.119Z,4.23
2023-05-02T13:00:28.147Z,3.93
2023-05-02T13:02:54.884Z,4.20
2023-05-02T13:05:21.742Z,3.50
2023-05-02T13:07:48.355Z,3.30
2023-05-02T13:10:17.788Z,3.33
2023-05-02T13:12:48.069Z,3.87
2023-05-02T13:15:15.330Z,3.93
2023-05-02T13:17:42.256Z,3.53
2023-05-02T13:20:09.637Z,4.33
2023-05-02T13:22:37.403Z,4.30
2023-05-02T13:25:05.478Z,3.83
2023-05-02T13:27:34.169Z,3.20
2023-05-02T13:30:07.981Z,3.40
2023-05-02T13:32:35.939Z,3.30
2023-05-02T13:35:03.713Z,3.03
2023-05-02T13:37:30.644Z,2.70
2023-05-02T13:39:57.445Z,2.80
2023-05-02T13:42:24.818Z,3.23
2023-05-02T13:44:51.814Z,2.53
2023-05-02T13:47:18.670Z,2.20
2023-05-02T13:49:45.945Z,2.10
2023-05-02T13:52:12.614Z,2.00
2023-05-02T13:54:39.455Z,2.27
2023-05-02T13:57:06.469Z,2.53
2023-05-02T13:59:33.114Z,2.27
2023-05-02T14:01:59.843Z,2.00
2023-05-02T14:04:26.643Z,1.83
2023-05-02T14:06:53.458Z,2.20
2023-05-02T14:09:20.924Z,2.20
2023-05-02T14:11:48.614Z,2.57
2023-05-02T14:14:15.493Z,2.10
2023-05-02T14:16:42.515Z,2.30
2023-05-02T14:19:12.133Z,2.27
2023-05-02T14:21:38.888Z,2.00
2023-05-02T14:24:06.418Z,2.00
2023-05-02T14:26:33.235Z,1.70
2023-05-02T14:29:00.706Z,1.33
2023-05-02T14:31:27.713Z,1.33
2023-05-02T14:33:54.488Z,1.50
2023-05-02T14:36:21.182Z,2.17
2023-05-02T14:38:47.867Z,1.90
2023-05-02T14:41:14.734Z,2.03
2023-05-02T14:43:41.390Z,2.00
2023-05-02T14:46:07.986Z,1.87
2023-05-02T14:48:34.666Z,2.00
2023-05-02T14:51:04.049Z,1.97
2023-05-02T14:53:30.777Z,2.33
2023-05-02T14:55:57.634Z,2.00
2023-05-02T14:58:24.326Z,2.20
2023-05-02T15:00:51.278Z,1.80
2023-05-02T15:03:18.076Z,2.03
2023-05-02T15:05:45.059Z,1.53
2023-05-02T15:08:11.702Z,1.40
2023-05-02T15:10:39.287Z,1.07
2023-05-02T15:13:06.641Z,1.00
2023-05-02T15:15:33.404Z,1.63
2023-05-02T15:18:00.158Z,1.30
2023-05-02T15:20:26.936Z,1.60
2023-05-02T15:22:53.613Z,1.60
2023-05-02T15:25:20.260Z,1.60
2023-05-02T15:27:47.017Z,1.70
2023-05-02T15:30:15.907Z,1.43
2023-05-02T15:32:43.764Z,1.90
2023-05-02T15:35:11.556Z,2.00
2023-05-02T15:37:38.168Z,1.80
2023-05-02T15:40:06.646Z,1.37
2023-05-02T15:42:36.867Z,1.77
2023-05-02T15:45:04.168Z,1.70
2023-05-02T15:47:30.959Z,1.60
2023-05-02T15:50:00.978Z,1.90
2023-05-02T15:52:27.751Z,2.50
2023-05-02T15:54:55.964Z,2.10
2023-05-02T15:57:22.918Z,1.90
2023-05-02T15:59:49.910Z,2.20
2023-05-02T16:02:16.537Z,2.47
2023-05-02T16:04:43.218Z,2.43
2023-05-02T16:07:10.983Z,2.80
2023-05-02T16:09:38.690Z,3.17
2023-05-02T16:12:06.924Z,2.87
2023-05-02T16:14:34.690Z,2.23
2023-05-02T16:17:01.547Z,3.33
2023-05-02T16:19:28.307Z,3.13
2023-05-02T16:21:54.979Z,2.70
2023-05-02T16:24:21.643Z,3.43
2023-05-02T16:26:48.295Z,3.10
2023-05-02T16:29:14.957Z,3.00
2023-05-02T16:31:44.798Z,3.40
2023-05-02T16:34:11.670Z,3.20
2023-05-02T16:36:38.341Z,4.13
2023-05-02T16:39:05.057Z,3.33
2023-05-02T16:41:34.174Z,3.60
2023-05-02T16:44:00.824Z,3.40
2023-05-02T16:46:27.617Z,3.60
2023-05-02T16:48:54.467Z,3.40
2023-05-02T16:51:21.399Z,2.97
2023-05-02T16:53:48.088Z,3.90
2023-05-02T16:56:14.733Z,3.47
2023-05-02T16:58:41.529Z,3.20
2023-05-02T17:01:08.431Z,4.47
2023-05-02T17:03:35.172Z,4.27
2023-05-02T17:06:02.163Z,4.43
2023-05-02T17:08:29.208Z,4.30
2023-05-02T17:10:56.126Z,4.30
2023-05-02T17:13:22.952Z,4.20
2023-05-02T17:15:49.784Z,4.20
2023-05-02T17:18:16.618Z,4.80
2023-05-02T17:20:43.432Z,4.07
2023-05-02T17:23:10.433Z,4.13
2023-05-02T17:25:38.208Z,4.40
2023-05-02T17:28:05.959Z,4.63
2023-05-02T17:30:33.566Z,3.57
2023-05-02T17:33:00.462Z,3.53
2023-05-02T17:35:27.312Z,3.50
2023-05-02T17:37:55.187Z,2.90
2023-05-02T17:40:21.917Z,3.10
2023-05-02T17:42:48.933Z,3.00
2023-05-02T17:45:16.604Z,3.00
2023-05-02T17:47:43.250Z,3.63
2023-05-02T17:50:10.333Z,3.60
2023-05-02T17:52:37.243Z,3.30
2023-05-02T17:55:04.221Z,4.00
2023-05-02T17:57:31.095Z,3.60
2023-05-02T17:59:59.647Z,3.70
2023-05-02T18:02:27.469Z,4.43
2023-05-02T18:04:54.770Z,4.00
2023-05-02T18:07:24.221Z,4.70
2023-05-02T18:09:51.849Z,3.80
2023-05-02T18:12:19.119Z,4.37
2023-05-02T18:14:45.910Z,4.50
2023-05-02T18:17:12.997Z,4.67
2023-05-02T18:19:39.883Z,5.70
2023-05-02T18:22:07.217Z,5.23
2023-05-02T18:24:33.921Z,4.47
2023-05-02T18:27:00.636Z,4.10
2023-05-02T18:29:27.581Z,4.27
2023-05-02T18:31:54.390Z,4.13
2023-05-02T18:34:21.128Z,4.83
2023-05-02T18:36:47.835Z,3.50
2023-05-02T18:39:14.585Z,3.20
2023-05-02T18:41:41.216Z,3.50
2023-05-02T18:44:10.042Z,3.30
2023-05-02T18:46:36.792Z,3.30
2023-05-02T18:49:03.497Z,3.23
2023-05-02T18:51:30.187Z,2.70
2023-05-02T18:53:58.900Z,2.80
2023-05-02T18:56:25.871Z,3.03
2023-05-02T18:58:56.573Z,3.20
2023-05-02T19:01:27.005Z,2.97
2023-05-02T19:03:54.290Z,3.00
2023-05-02T19:06:21.325Z,2.97
2023-05-02T19:08:48.751Z,2.70
2023-05-02T19:11:15.646Z,2.90
2023-05-02T19:13:42.354Z,3.00
2023-05-02T19:16:13.668Z,2.70
2023-05-02T19:18:43.466Z,2.80
2023-05-02T19:21:12.653Z,2.97
2023-05-02T19:23:41.810Z,3.13
2023-05-02T19:26:16.663Z,2.73
2023-05-02T19:28:44.228Z,2.90
2023-05-02T19:31:21.066Z,3.13
2023-05-02T19:33:54.754Z,3.40
2023-05-02T19:36:23.249Z,3.37
2023-05-02T19:38:51.965Z,3.00
2023-05-02T19:41:19.103Z,3.13
2023-05-02T19:43:46.071Z,3.37
2023-05-02T19:46:14.843Z,3.43
2023-05-02T19:48:41.805Z,3.17
2023-05-02T19:51:08.834Z,3.27
2023-05-02T19:53:37.373Z,3.40
2023-05-02T19:56:07.084Z,2.90
2023-05-02T19:58:34.029Z,3.43
2023-05-02T20:01:00.875Z,4.60
2023-05-02T20:03:27.658Z,5.80
2023-05-02T20:05:55.369Z,4.83
2023-05-02T20:08:26.235Z,5.77
2023-05-02T20:10:53.587Z,4.80
2023-05-02T20:13:22.533Z,4.70
2023-05-02T20:15:50.670Z,4.60
2023-05-02T20:18:17.412Z,3.60
2023-05-02T20:20:44.102Z,3.60
2023-05-02T20:23:10.844Z,3.10
2023-05-02T20:25:37.533Z,2.80
2023-05-02T20:28:04.285Z,2.83
2023-05-02T20:30:31.278Z,2.93
2023-05-02T20:33:10.646Z,3.07
2023-05-02T20:35:41.319Z,2.70
2023-05-02T20:38:08.095Z,3.03
2023-05-02T20:40:35.178Z,3.20
2023-05-02T20:43:02.060Z,2.90
2023-05-02T20:45:28.765Z,2.90
2023-05-02T20:47:55.476Z,2.70
2023-05-02T20:50:22.446Z,2.90
2023-05-02T20:52:49.200Z,2.77
2023-05-02T20:55:16.015Z,2.67
2023-05-02T20:57:42.658Z,2.80
2023-05-02T21:00:13.576Z,2.80
2023-05-02T21:02:40.985Z,2.70
2023-05-02T21:05:08.022Z,2.60
2023-05-02T21:07:34.728Z,2.90
2023-05-02T21:10:01.604Z,3.10
2023-05-02T21:12:28.518Z,2.97
2023-05-02T21:14:55.515Z,3.20
2023-05-02T21:17:22.231Z,2.90
2023-05-02T21:19:49.168Z,3.20
2023-05-02T21:22:15.910Z,3.30
2023-05-02T21:24:42.601Z,3.63
2023-05-02T21:27:09.266Z,3.60
2023-05-02T21:29:35.928Z,4.20
2023-05-02T21:32:02.805Z,4.10
2023-05-02T21:34:29.470Z,4.10
2023-05-02T21:36:56.129Z,3.43
2023-05-02T21:39:22.781Z,3.37
2023-05-02T21:41:49.535Z,3.67
2023-05-02T21:44:16.221Z,3.97
2023-05-02T21:46:42.935Z,3.60
2023-05-02T21:49:09.621Z,3.60
2023-05-02T21:51:38.946Z,3.33
2023-05-02T21:54:05.837Z,4.07
2023-05-02T21:56:32.505Z,3.23
2023-05-02T21:59:01.908Z,3.40
2023-05-02T22:01:28.872Z,3.73
2023-05-02T22:03:55.739Z,3.43
2023-05-02T22:06:22.435Z,3.60
2023-05-02T22:08:49.160Z,3.50
2023-05-02T22:11:15.962Z,3.73
2023-05-02T22:13:42.673Z,3.80
2023-05-02T22:16:09.725Z,3.53
2023-05-02T22:18:36.909Z,3.73
2023-05-02T22:21:03.770Z,3.80
2023-05-02T22:23:30.977Z,3.27
2023-05-02T22:25:58.103Z,3.47
2023-05-02T22:28:24.802Z,3.63
2023-05-02T22:30:51.522Z,3.63
2023-05-02T22:33:18.249Z,3.53
2023-05-02T22:35:44.981Z,3.93
2023-05-02T22:38:15.004Z,3.83
2023-05-02T22:40:41.635Z,4.00
2023-05-02T22:43:08.450Z,3.97
2023-05-02T22:45:36.516Z,4.00
2023-05-02T22:48:03.440Z,4.27
2023-05-02T22:50:30.201Z,3.80
2023-05-02T22:52:57.253Z,4.00
2023-05-02T22:55:24.216Z,4.10
2023-05-02T22:57:50.990Z,4.43
2023-05-02T23:00:17.721Z,3.37
2023-05-02T23:02:45.024Z,3.90
2023-05-02T23:05:12.109Z,3.77
2023-05-02T23:07:38.852Z,3.90
2023-05-02T23:10:06.411Z,3.83
2023-05-02T23:12:35.134Z,3.73
2023-05-02T23:15:02.146Z,4.03
2023-05-02T23:17:28.781Z,4.00
2023-05-02T23:19:55.480Z,4.30
2023-05-02T23:22:22.102Z,4.37
2023-05-02T23:24:48.775Z,4.07
2023-05-02T23:27:15.621Z,4.30
2023-05-02T23:29:42.410Z,4.83
2023-05-02T23:32:09.214Z,4.80
2023-05-02T23:34:36.558Z,4.77
2023-05-02T23:37:05.734Z,4.90
2023-05-02T23:39:34.591Z,4.63
2023-05-02T23:42:03.528Z,4.83
2023-05-02T23:44:31.177Z,4.83
2023-05-02T23:46:59.335Z,4.80
2023-05-02T23:49:26.685Z,4.80
2023-05-02T23:51:53.444Z,5.10
2023-05-02T23:54:20.065Z,5.10
2023-05-02T23:56:46.812Z,4.60
2023-05-02T23:59:16.536Z,4.50
